<?xml version='1.0' encoding='UTF-8'?><gpx version="1.1" creator="JPX - https://github.com/jenetics/jpx" xmlns="http://www.topografix.com/GPX/1/1"><trk><trkseg><trkpt lat="43.44011807582566" lon="5.284036116764724"><ele>109.0</ele><time>2026-04-08T16:01:22Z</time></trkpt><trkpt lat="43.44004803214322" lon="5.28408295152593"><ele>109.0</ele><time>2026-04-08T16:01:23Z</time></trkpt><trkpt lat="43.43998351996078" lon="5.284110417779321"><ele>109.0</ele><time>2026-04-08T16:01:24Z</time></trkpt><trkpt lat="43.439876026774876" lon="5.284157235701948"><ele>109.0</ele><time>2026-04-08T16:01:26Z</time></trkpt><trkpt lat="43.4397853318866" lon="5.284207755626293"><ele>109.0</ele><time>2026-04-08T16:01:28Z</time></trkpt><trkpt lat="43.4396862304605" lon="5.284266141160993"><ele>108.80000000000001</ele><time>2026-04-08T16:01:30Z</time></trkpt><trkpt lat="43.4396044314478" lon="5.284341248274428"><ele>108.60000000000001</ele><time>2026-04-08T16:01:32Z</time></trkpt><trkpt lat="43.439526518703225" lon="5.2844312774220015"><ele>108.4</ele><time>2026-04-08T16:01:34Z</time></trkpt><trkpt lat="43.4394585118319" lon="5.284529917381959"><ele>108.2</ele><time>2026-04-08T16:01:36Z</time></trkpt><trkpt lat="43.439387515800476" lon="5.284653689696094"><ele>108.0</ele><time>2026-04-08T16:01:38Z</time></trkpt><trkpt lat="43.4393145412109" lon="5.284766125469533"><ele>108.0</ele><time>2026-04-08T16:01:40Z</time></trkpt><trkpt lat="43.43922044442361" lon="5.284748059125453"><ele>108.00000000000001</ele><time>2026-04-08T16:01:44Z</time></trkpt><trkpt lat="43.43914483699409" lon="5.284753598218609"><ele>108.00000000000001</ele><time>2026-04-08T16:01:45Z</time></trkpt><trkpt lat="43.439057912521506" lon="5.284772659676126"><ele>108.0</ele><time>2026-04-08T16:01:46.001Z</time></trkpt><trkpt lat="43.4389743231335" lon="5.284846675754482"><ele>108.0</ele><time>2026-04-08T16:01:47.001Z</time></trkpt><trkpt lat="43.43893026414383" lon="5.284976931821109"><ele>107.75</ele><time>2026-04-08T16:01:48.001Z</time></trkpt><trkpt lat="43.43892211291895" lon="5.2851094092699205"><ele>107.5</ele><time>2026-04-08T16:01:49.001Z</time></trkpt><trkpt lat="43.43876186502784" lon="5.2851729228675515"><ele>107.25</ele><time>2026-04-08T16:01:50.001Z</time></trkpt><trkpt lat="43.43866805778368" lon="5.285200590373095"><ele>107.0</ele><time>2026-04-08T16:01:51.001Z</time></trkpt><trkpt lat="43.43857846336286" lon="5.285217943875972"><ele>105.99999999999999</ele><time>2026-04-08T16:01:52.001Z</time></trkpt><trkpt lat="43.43849179449249" lon="5.285234102938669"><ele>105.0</ele><time>2026-04-08T16:01:53.001Z</time></trkpt><trkpt lat="43.438406259673144" lon="5.2852525269197965"><ele>104.0</ele><time>2026-04-08T16:01:54.001Z</time></trkpt><trkpt lat="43.43832362036811" lon="5.285264542145064"><ele>103.0</ele><time>2026-04-08T16:01:55.001Z</time></trkpt><trkpt lat="43.438244598143335" lon="5.285272540433529"><ele>101.99999999999999</ele><time>2026-04-08T16:01:56.001Z</time></trkpt><trkpt lat="43.438168532960425" lon="5.285259629632845"><ele>101.0</ele><time>2026-04-08T16:01:57.001Z</time></trkpt><trkpt lat="43.43809508496595" lon="5.285220536292313"><ele>100.99999999999999</ele><time>2026-04-08T16:01:58.001Z</time></trkpt><trkpt lat="43.438024761323916" lon="5.28517568495022"><ele>101.0</ele><time>2026-04-08T16:01:59.001Z</time></trkpt><trkpt lat="43.43794735947395" lon="5.285160478595282"><ele>101.0</ele><time>2026-04-08T16:02:00.001Z</time></trkpt><trkpt lat="43.437872420570685" lon="5.285167121828139"><ele>101.0</ele><time>2026-04-08T16:02:01.001Z</time></trkpt><trkpt lat="43.43781505614712" lon="5.28527165195928"><ele>100.99999999999999</ele><time>2026-04-08T16:02:02.001Z</time></trkpt><trkpt lat="43.437783649930026" lon="5.2853716750558"><ele>101.0</ele><time>2026-04-08T16:02:03.001Z</time></trkpt><trkpt lat="43.43776258613362" lon="5.285469074257864"><ele>100.66666666666666</ele><time>2026-04-08T16:02:04.001Z</time></trkpt><trkpt lat="43.43772856055065" lon="5.2855630118575245"><ele>100.33333333333333</ele><time>2026-04-08T16:02:05.001Z</time></trkpt><trkpt lat="43.43767231143977" lon="5.28563515636401"><ele>100.0</ele><time>2026-04-08T16:02:06.001Z</time></trkpt><trkpt lat="43.437601280622275" lon="5.285686688327902"><ele>99.66666666666666</ele><time>2026-04-08T16:02:07.001Z</time></trkpt><trkpt lat="43.43752426696937" lon="5.2857237057307485"><ele>99.33333333333333</ele><time>2026-04-08T16:02:08.001Z</time></trkpt><trkpt lat="43.43745623476222" lon="5.285774464421024"><ele>99.0</ele><time>2026-04-08T16:02:09.001Z</time></trkpt><trkpt lat="43.43739789876998" lon="5.285813663503992"><ele>104.0</ele><time>2026-04-08T16:02:10.001Z</time></trkpt><trkpt lat="43.437312439234944" lon="5.285871088182168"><ele>104.0</ele><time>2026-04-08T16:02:12.001Z</time></trkpt><trkpt lat="43.43724843064961" lon="5.285912326888686"><ele>104.0</ele><time>2026-04-08T16:02:14.001Z</time></trkpt></trkseg></trk></gpx>